createdAt,value
2022-09-21T00:01:13.501Z,99180.38
2022-09-21T00:03:43.874Z,99183.44
2022-09-21T00:06:17.201Z,99180.56
2022-09-21T00:08:44.734Z,99182.59
2022-09-21T00:11:16.397Z,99184.47
2022-09-21T00:13:46.893Z,99180.78
2022-09-21T00:16:15.930Z,99174.41
2022-09-21T00:18:43.727Z,99173.16
2022-09-21T00:21:12.597Z,99178.94
2022-09-21T00:23:40.016Z,99173.38
2022-09-21T00:26:14.470Z,99176.28
2022-09-21T00:28:41.798Z,99188.63
2022-09-21T00:31:12.515Z,99188.03
2022-09-21T00:33:40.365Z,99192.94
2022-09-21T00:36:10.128Z,99193.97
2022-09-21T00:38:37.600Z,99188.81
2022-09-21T00:41:05.846Z,99185.34
2022-09-21T00:43:37.630Z,99196.03
2022-09-21T00:46:24.486Z,99186.56
2022-09-21T00:48:51.899Z,99185.75
2022-09-21T00:51:18.879Z,99186.97
2022-09-21T00:53:46.235Z,99185.34
2022-09-21T00:56:13.695Z,99183.69
2022-09-21T00:58:50.119Z,99184.91
2022-09-21T01:01:18.781Z,99180.59
2022-09-21T01:03:49.617Z,99180.38
2022-09-21T01:06:18.857Z,99168.22
2022-09-21T01:08:47.516Z,99173.00
2022-09-21T01:11:23.819Z,99175.47
2022-09-21T01:14:09.519Z,99177.31
2022-09-21T01:16:53.024Z,99173.41
2022-09-21T01:19:50.233Z,99176.66
2022-09-21T01:22:46.914Z,99177.72
2022-09-21T01:25:41.339Z,99174.22
2022-09-21T01:28:38.250Z,99177.91
2022-09-21T01:31:08.007Z,99172.97
2022-09-21T01:33:44.554Z,99174.63
2022-09-21T01:36:15.317Z,99177.91
2022-09-21T01:38:45.742Z,99175.44
2022-09-21T01:41:15.212Z,99175.03
2022-09-21T01:43:48.731Z,99177.69
2022-09-21T01:46:19.582Z,99175.63
2022-09-21T01:48:56.292Z,99179.13
2022-09-21T01:51:26.976Z,99170.69
2022-09-21T01:54:01.994Z,99183.88
2022-09-21T01:56:35.758Z,99178.91
2022-09-21T01:59:22.626Z,99184.06
2022-09-21T02:01:53.888Z,99184.88
2022-09-21T02:04:21.025Z,99181.19
2022-09-21T02:06:49.578Z,99183.66
2022-09-21T02:09:19.500Z,99182.41
2022-09-21T02:11:46.541Z,99191.25
2022-09-21T02:14:22.845Z,99190.63
2022-09-21T02:16:56.533Z,99191.69
2022-09-21T02:19:36.187Z,99194.75
2022-09-21T02:22:07.688Z,99198.88
2022-09-21T02:24:43.427Z,99193.09
2022-09-21T02:27:27.625Z,99196.38
2022-09-21T02:30:03.706Z,99193.31
2022-09-21T02:32:52.078Z,99200.94
2022-09-21T02:35:27.082Z,99203.78
2022-09-21T02:38:09.379Z,99187.72
2022-09-21T02:41:07.524Z,99190.78
2022-09-21T02:43:38.006Z,99191.19
2022-09-21T02:46:18.733Z,99189.34
2022-09-21T02:48:51.928Z,99193.88
2022-09-21T02:51:23.648Z,99187.25
2022-09-21T02:53:51.779Z,99193.63
2022-09-21T02:56:19.036Z,99186.59
2022-09-21T02:58:49.987Z,99184.28
2022-09-21T03:01:17.752Z,99184.91
2022-09-21T03:03:44.980Z,99186.94
2022-09-21T03:06:12.568Z,99184.66
2022-09-21T03:08:40.798Z,99176.78
2022-09-21T03:11:08.105Z,99175.78
2022-09-21T03:13:37.751Z,99178.22
2022-09-21T03:16:07.267Z,99169.97
2022-09-21T03:18:35.232Z,99174.91
2022-09-21T03:21:03.162Z,99167.28
2022-09-21T03:23:30.428Z,99167.00
2022-09-21T03:25:57.319Z,99170.03
2022-09-21T03:28:24.427Z,99164.19
2022-09-21T03:30:52.421Z,99162.47
2022-09-21T03:33:21.714Z,99162.00
2022-09-21T03:35:49.366Z,99172.22
2022-09-21T03:38:17.007Z,99162.69
2022-09-21T03:40:47.638Z,99170.53
2022-09-21T03:43:15.164Z,99171.56
2022-09-21T03:45:42.777Z,99175.06
2022-09-21T03:48:11.405Z,99169.28
2022-09-21T03:50:38.775Z,99173.38
2022-09-21T03:53:06.061Z,99176.44
2022-09-21T03:55:33.508Z,99180.34
2022-09-21T03:58:00.715Z,99172.88
2022-09-21T04:00:27.852Z,99177.53
2022-09-21T04:02:54.966Z,99174.34
2022-09-21T04:05:22.037Z,99180.69
2022-09-21T04:07:49.151Z,99172.41
2022-09-21T04:10:19.787Z,99179.56
2022-09-21T04:12:48.391Z,99172.72
2022-09-21T04:15:19.685Z,99175.31
2022-09-21T04:17:50.108Z,99178.16
2022-09-21T04:20:17.180Z,99179.81
2022-09-21T04:22:46.844Z,99178.78
2022-09-21T04:25:14.483Z,99185.19
2022-09-21T04:27:43.186Z,99184.81
2022-09-21T04:30:14.474Z,99192.72
2022-09-21T04:32:41.778Z,99191.91
2022-09-21T04:35:09.211Z,99192.25
2022-09-21T04:37:36.316Z,99191.25
2022-09-21T04:40:04.535Z,99188.09
2022-09-21T04:42:31.571Z,99199.38
2022-09-21T04:44:58.457Z,99199.59
2022-09-21T04:47:25.644Z,99195.25
2022-09-21T04:49:55.382Z,99192.06
2022-09-21T04:52:25.672Z,99196.09
2022-09-21T04:54:53.264Z,99197.47
2022-09-21T04:57:20.421Z,99198.16
2022-09-21T04:59:49.885Z,99194.78
2022-09-21T05:02:18.144Z,99201.63
2022-09-21T05:04:50.065Z,99191.72
2022-09-21T05:07:18.109Z,99193.06
2022-09-21T05:10:05.446Z,99186.44
2022-09-21T05:12:32.710Z,99196.78
2022-09-21T05:14:59.808Z,99193.97
2022-09-21T05:17:27.001Z,99198.09
2022-09-21T05:19:54.145Z,99197.88
2022-09-21T05:22:21.658Z,99184.19
2022-09-21T05:24:48.742Z,99188.50
2022-09-21T05:27:15.763Z,99188.84
2022-09-21T05:29:42.976Z,99188.53
2022-09-21T05:32:26.508Z,99183.47
2022-09-21T05:35:14.724Z,99186.84
2022-09-21T05:37:44.652Z,99178.63
2022-09-21T05:40:12.927Z,99184.41
2022-09-21T05:42:41.256Z,99187.63
2022-09-21T05:45:10.087Z,99187.84
2022-09-21T05:47:42.737Z,99191.34
2022-09-21T05:50:36.366Z,99188.19
2022-09-21T05:53:13.267Z,99184.09
2022-09-21T05:55:57.171Z,99192.63
2022-09-21T05:58:26.992Z,99190.16
2022-09-21T06:01:17.905Z,99190.41
2022-09-21T06:03:45.281Z,99178.22
2022-09-21T06:06:12.202Z,99185.81
2022-09-21T06:08:41.718Z,99182.81
2022-09-21T06:11:08.683Z,99178.28
2022-09-21T06:13:38.395Z,99189.84
2022-09-21T06:16:05.764Z,99198.00
2022-09-21T06:18:40.832Z,99187.69
2022-09-21T06:21:09.007Z,99190.13
2022-09-21T06:23:36.323Z,99191.22
2022-09-21T06:26:03.782Z,99196.94
2022-09-21T06:28:31.032Z,99195.84
2022-09-21T06:30:58.775Z,99183.31
2022-09-21T06:33:26.478Z,99187.34
2022-09-21T06:35:59.571Z,99187.94
2022-09-21T06:38:27.862Z,99176.72
2022-09-21T06:40:55.715Z,99184.72
2022-09-21T06:43:26.690Z,99181.97
2022-09-21T06:45:55.304Z,99182.78
2022-09-21T06:48:22.601Z,99193.97
2022-09-21T06:50:50.909Z,99199.06
2022-09-21T06:53:18.393Z,99186.91
2022-09-21T06:55:47.686Z,99196.41
2022-09-21T06:58:14.690Z,99185.59
2022-09-21T07:00:41.686Z,99193.47
2022-09-21T07:03:12.155Z,99195.34
2022-09-21T07:05:40.057Z,99183.22
2022-09-21T07:10:04.517Z,99195.69
2022-09-21T07:10:54.359Z,99188.22
2022-09-21T07:13:21.967Z,99196.00
2022-09-21T07:15:53.179Z,99185.00
2022-09-21T07:18:21.000Z,99187.53
2022-09-21T07:20:51.107Z,99187.00
2022-09-21T07:23:19.831Z,99180.91
2022-09-21T07:25:52.633Z,99188.66
2022-09-21T07:28:19.763Z,99189.25
2022-09-21T07:30:46.812Z,99196.84
2022-09-21T07:33:13.824Z,99188.56
2022-09-21T07:35:40.685Z,99197.84
2022-09-21T07:38:08.583Z,99185.34
2022-09-21T07:40:36.269Z,99200.97
2022-09-21T07:43:04.042Z,99196.38
2022-09-21T07:45:31.595Z,99202.63
2022-09-21T07:48:05.975Z,99190.13
2022-09-21T07:50:34.449Z,99194.53
2022-09-21T07:53:03.446Z,99194.00
2022-09-21T07:55:30.915Z,99197.88
2022-09-21T07:58:16.457Z,99195.97
2022-09-21T08:00:43.423Z,99198.94
2022-09-21T08:03:11.191Z,99199.78
2022-09-21T08:05:39.375Z,99198.69
2022-09-21T08:08:06.341Z,99180.91
2022-09-21T08:10:33.358Z,99190.06
2022-09-21T08:13:00.495Z,99186.19
2022-09-21T08:15:47.530Z,99194.53
2022-09-21T08:18:14.629Z,99190.75
2022-09-21T08:20:42.492Z,99190.59
2022-09-21T08:23:09.968Z,99187.59
2022-09-21T08:25:38.319Z,99184.81
2022-09-21T08:28:09.822Z,99182.13
2022-09-21T08:30:37.329Z,99184.03
2022-09-21T08:33:04.933Z,99185.19
2022-09-21T08:35:32.050Z,99187.22
2022-09-21T08:37:59.039Z,99181.81
2022-09-21T08:40:26.315Z,99175.25
2022-09-21T08:43:10.443Z,99179.50
2022-09-21T08:45:45.155Z,99175.81
2022-09-21T08:48:21.925Z,99179.13
2022-09-21T08:50:54.717Z,99170.72
2022-09-21T08:53:31.763Z,99164.44
2022-09-21T08:55:58.697Z,99164.19
2022-09-21T08:58:27.552Z,99162.03
2022-09-21T09:01:20.340Z,99160.13
2022-09-21T09:03:56.463Z,99156.50
2022-09-21T09:06:43.712Z,99154.84
2022-09-21T09:09:10.815Z,99156.22
2022-09-21T09:11:54.439Z,99155.69
2022-09-21T09:14:31.248Z,99154.06
2022-09-21T09:17:31.206Z,99142.56
2022-09-21T09:20:09.680Z,99141.97
2022-09-21T09:23:02.848Z,99143.59
2022-09-21T09:25:35.410Z,99138.88
2022-09-21T09:28:11.096Z,99144.50
2022-09-21T09:30:38.054Z,99137.19
2022-09-21T09:33:43.732Z,99139.53
2022-09-21T09:36:13.012Z,99143.38
2022-09-21T09:38:45.414Z,99143.78
2022-09-21T09:41:33.567Z,99139.50
2022-09-21T09:44:16.337Z,99135.69
2022-09-21T09:47:16.084Z,99131.06
2022-09-21T09:50:11.822Z,99134.03
2022-09-21T09:56:22.879Z,99136.25
2022-09-21T09:59:07.092Z,99135.16
2022-09-21T10:01:42.682Z,99141.13
2022-09-21T10:04:15.146Z,99133.25
2022-09-21T10:06:46.384Z,99143.84
2022-09-21T10:09:26.305Z,99141.91
2022-09-21T10:11:57.214Z,99136.66
2022-09-21T10:14:25.868Z,99136.09
2022-09-21T10:16:53.666Z,99125.78
2022-09-21T10:19:25.968Z,99132.38
2022-09-21T10:22:06.306Z,99132.38
2022-09-21T10:24:36.397Z,99126.97
2022-09-21T10:27:18.130Z,99127.50
2022-09-21T10:29:46.712Z,99121.28
2022-09-21T10:32:14.810Z,99128.09
2022-09-21T10:35:13.590Z,99118.28
2022-09-21T10:37:42.893Z,99116.41
2022-09-21T10:40:22.220Z,99118.03
2022-09-21T10:42:50.635Z,99116.66
2022-09-21T10:45:20.209Z,99115.03
2022-09-21T10:47:48.951Z,99115.56
2022-09-21T10:50:38.788Z,99112.59
2022-09-21T10:53:23.691Z,99123.72
2022-09-21T10:56:15.037Z,99118.56
2022-09-21T10:59:12.829Z,99119.94
2022-09-21T11:01:47.622Z,99103.34
2022-09-21T11:04:42.121Z,99107.69
2022-09-21T11:07:24.755Z,99108.75
2022-09-21T11:10:04.461Z,99106.56
2022-09-21T11:13:00.902Z,99109.28
2022-09-21T11:15:39.282Z,99122.06
2022-09-21T11:18:37.362Z,99115.81
2022-09-21T11:21:15.798Z,99110.09
2022-09-21T11:24:16.166Z,99111.38
2022-09-21T11:26:48.695Z,99109.44
2022-09-21T11:29:20.062Z,99102.94
2022-09-21T11:31:58.720Z,99098.06
2022-09-21T11:34:44.601Z,99093.13
2022-09-21T11:37:33.320Z,99090.13
2022-09-21T11:40:09.939Z,99086.59
2022-09-21T11:43:08.758Z,99093.91
2022-09-21T11:45:50.342Z,99085.22
2022-09-21T11:48:43.323Z,99085.16
2022-09-21T11:51:55.976Z,99092.75
2022-09-21T11:54:40.649Z,99091.31
2022-09-21T11:57:24.347Z,99083.38
2022-09-21T12:00:00.425Z,99077.66
2022-09-21T12:02:52.406Z,99081.19
2022-09-21T12:05:23.899Z,99077.66
2022-09-21T12:07:59.697Z,99078.44
2022-09-21T12:10:54.685Z,99081.66
2022-09-21T12:13:34.315Z,99078.34
2022-09-21T12:16:16.019Z,99077.84
2022-09-21T12:19:14.782Z,99087.88
2022-09-21T12:21:47.851Z,99084.00
2022-09-21T12:24:31.948Z,99079.94
2022-09-21T12:27:23.500Z,99075.31
2022-09-21T12:29:53.997Z,99075.28
2022-09-21T12:32:40.955Z,99081.47
2022-09-21T12:35:15.095Z,99077.06
2022-09-21T12:37:47.814Z,99069.19
2022-09-21T12:40:28.195Z,99071.84
2022-09-21T12:43:07.690Z,99076.75
2022-09-21T12:45:41.246Z,99076.19
2022-09-21T12:48:08.144Z,99082.94
2022-09-21T12:55:01.841Z,99080.72
2022-09-21T12:58:10.824Z,99075.25
2022-09-21T13:00:58.369Z,99076.59
2022-09-21T13:03:33.306Z,99071.41
2022-09-21T13:06:12.503Z,99074.38
2022-09-21T13:08:43.795Z,99078.44
2022-09-21T13:11:11.004Z,99081.44
2022-09-21T13:13:43.966Z,99079.59
2022-09-21T13:16:31.924Z,99078.19
2022-09-21T13:19:04.464Z,99076.00
2022-09-21T13:21:33.449Z,99065.19
2022-09-21T13:24:02.737Z,99068.13
2022-09-21T13:26:38.736Z,99065.13
2022-09-21T13:29:33.433Z,99070.56
2022-09-21T13:32:21.380Z,99075.94
2022-09-21T13:34:51.040Z,99071.56
2022-09-21T13:37:21.021Z,99071.56
2022-09-21T13:39:50.803Z,99069.38
2022-09-21T13:42:32.977Z,99069.63
2022-09-21T13:45:04.931Z,99066.09
2022-09-21T13:47:34.335Z,99070.47
2022-09-21T13:50:21.603Z,99062.34
2022-09-21T13:52:52.279Z,99063.34
2022-09-21T13:55:32.812Z,99064.69
2022-09-21T13:58:18.207Z,99054.13
2022-09-21T14:00:54.287Z,99059.22
2022-09-21T14:03:33.305Z,99057.66
2022-09-21T14:06:10.647Z,99055.69
2022-09-21T14:08:43.184Z,99055.69
2022-09-21T14:11:33.965Z,99055.69
2022-09-21T14:14:00.937Z,99059.16
2022-09-21T14:16:34.213Z,99055.09
2022-09-21T14:19:04.350Z,99054.78
2022-09-21T14:21:31.467Z,99059.88
2022-09-21T14:24:20.151Z,99060.22
2022-09-21T14:26:55.309Z,99060.72
2022-09-21T14:29:29.769Z,99059.59
2022-09-21T14:32:00.157Z,99058.78
2022-09-21T14:34:37.787Z,99054.94
2022-09-21T14:37:16.997Z,99062.81
2022-09-21T14:39:45.788Z,99053.81
2022-09-21T14:42:27.348Z,99060.88
2022-09-21T14:44:58.242Z,99058.91
2022-09-21T14:47:32.042Z,99064.31
2022-09-21T14:50:11.734Z,99067.28
2022-09-21T14:53:18.484Z,99072.50
2022-09-21T14:55:59.089Z,99066.22
2022-09-21T14:58:32.066Z,99062.13
2022-09-21T15:01:37.971Z,99063.47
2022-09-21T15:04:45.863Z,99067.78
2022-09-21T15:08:08.311Z,99081.66
2022-09-21T15:10:58.388Z,99078.38
2022-09-21T15:13:43.450Z,99088.06
2022-09-21T15:16:23.418Z,99099.56
2022-09-21T15:18:51.740Z,99107.25
2022-09-21T15:21:27.675Z,99113.41
2022-09-21T15:23:54.878Z,99114.00
2022-09-21T15:26:26.664Z,99119.53
2022-09-21T15:29:11.251Z,99115.28
2022-09-21T15:31:48.225Z,99111.44
2022-09-21T15:34:15.610Z,99112.84
2022-09-21T15:36:43.938Z,99105.06
2022-09-21T15:39:32.945Z,99112.84
2022-09-21T15:42:20.164Z,99101.88
2022-09-21T15:44:48.851Z,99095.81
2022-09-21T15:47:20.083Z,99103.31
2022-09-21T15:49:48.200Z,99092.22
2022-09-21T15:52:29.639Z,99096.03
2022-09-21T15:54:59.587Z,99101.44
2022-09-21T15:57:43.799Z,99109.81
2022-09-21T16:00:22.299Z,99122.63
2022-09-21T16:03:19.346Z,99111.78
2022-09-21T16:05:51.732Z,99135.03
2022-09-21T16:08:35.522Z,99140.91
2022-09-21T16:11:17.450Z,99141.38
2022-09-21T16:14:04.327Z,99142.44
2022-09-21T16:16:31.660Z,99152.34
2022-09-21T16:19:01.959Z,99150.94
2022-09-21T16:21:39.725Z,99150.84
2022-09-21T16:24:18.741Z,99154.56
2022-09-21T16:27:00.784Z,99150.84
2022-09-21T16:29:38.200Z,99157.38
2022-09-21T16:32:27.539Z,99175.47
2022-09-21T16:35:31.642Z,99177.59
2022-09-21T16:37:59.164Z,99183.84
2022-09-21T16:40:27.666Z,99181.03
2022-09-21T16:42:59.001Z,99174.59
2022-09-21T16:45:31.946Z,99174.09
2022-09-21T16:47:59.957Z,99185.41
2022-09-21T16:50:27.191Z,99178.91
2022-09-21T16:52:54.463Z,99176.78
2022-09-21T16:55:24.457Z,99188.75
2022-09-21T16:57:55.647Z,99201.91
2022-09-21T17:00:26.966Z,99187.66
2022-09-21T17:02:54.064Z,99187.44
2022-09-21T17:05:21.717Z,99184.91
2022-09-21T17:07:57.159Z,99191.91
2022-09-21T17:10:29.356Z,99176.44
2022-09-21T17:12:58.217Z,99165.69
2022-09-21T17:15:32.064Z,99159.56
2022-09-21T17:17:59.260Z,99167.09
2022-09-21T17:20:34.646Z,99176.34
2022-09-21T17:23:03.262Z,99170.84
2022-09-21T17:25:32.499Z,99174.28
2022-09-21T17:28:04.158Z,99179.06
2022-09-21T17:30:32.025Z,99172.41
2022-09-21T17:32:59.187Z,99166.78
2022-09-21T17:35:33.152Z,99165.28
2022-09-21T17:38:03.467Z,99166.09
2022-09-21T17:40:35.680Z,99160.13
2022-09-21T17:43:13.950Z,99177.84
2022-09-21T17:45:57.959Z,99166.69
2022-09-21T17:48:27.053Z,99178.88
2022-09-21T17:50:55.933Z,99175.97
2022-09-21T17:53:34.776Z,99172.59
2022-09-21T17:56:25.707Z,99180.31
2022-09-21T17:59:02.462Z,99174.94
2022-09-21T18:01:40.171Z,99175.97
2022-09-21T18:04:08.782Z,99176.09
2022-09-21T18:06:37.159Z,99172.38
2022-09-21T18:09:05.029Z,99173.53
2022-09-21T18:11:53.779Z,99177.44
2022-09-21T18:14:26.761Z,99186.31
2022-09-21T18:17:11.791Z,99186.09
2022-09-21T18:19:57.164Z,99196.75
2022-09-21T18:22:39.441Z,99195.09
2022-09-21T18:25:16.698Z,99203.75
2022-09-21T18:27:47.518Z,99197.78
2022-09-21T18:30:16.871Z,99190.16
2022-09-21T18:32:57.197Z,99188.06
2022-09-21T18:35:29.635Z,99189.56
2022-09-21T18:38:21.343Z,99190.63
2022-09-21T18:41:05.963Z,99183.84
2022-09-21T18:44:01.340Z,99182.88
2022-09-21T18:46:38.335Z,99183.34
2022-09-21T18:49:34.879Z,99184.97
2022-09-21T18:52:24.612Z,99176.91
2022-09-21T18:54:51.718Z,99177.97
2022-09-21T18:57:19.241Z,99176.16
2022-09-21T18:59:46.913Z,99184.03
2022-09-21T19:02:17.428Z,99189.63
2022-09-21T19:04:46.292Z,99190.09
2022-09-21T19:07:28.124Z,99189.28
2022-09-21T19:10:35.907Z,99190.16
2022-09-21T19:13:31.754Z,99191.69
2022-09-21T19:16:01.266Z,99202.44
2022-09-21T19:18:34.835Z,99193.56
2022-09-21T19:21:13.570Z,99199.97
2022-09-21T19:23:53.930Z,99190.03
2022-09-21T19:26:29.183Z,99189.00
2022-09-21T19:29:07.713Z,99187.72
2022-09-21T19:31:36.207Z,99187.47
2022-09-21T19:34:14.587Z,99185.63
2022-09-21T19:36:41.815Z,99193.69
2022-09-21T19:39:12.345Z,99183.50
2022-09-21T19:41:47.924Z,99186.19
2022-09-21T19:44:37.659Z,99195.47
2022-09-21T19:47:30.028Z,99189.28
2022-09-21T19:50:17.636Z,99180.59
2022-09-21T19:52:45.484Z,99173.94
2022-09-21T19:55:39.783Z,99175.56
2022-09-21T19:58:25.301Z,99177.69
2022-09-21T20:00:54.651Z,99183.66
2022-09-21T20:03:31.320Z,99180.53
2022-09-21T20:06:07.812Z,99176.78
2022-09-21T20:08:51.099Z,99180.06
2022-09-21T20:11:30.396Z,99180.06
2022-09-21T20:14:19.900Z,99190.34
2022-09-21T20:16:59.412Z,99183.34
2022-09-21T20:19:46.487Z,99176.91
2022-09-21T20:22:35.557Z,99175.28
2022-09-21T20:25:09.095Z,99173.00
2022-09-21T20:27:53.524Z,99174.06
2022-09-21T20:30:24.142Z,99163.31
2022-09-21T20:33:02.806Z,99169.28
2022-09-21T20:35:30.971Z,99159.34
2022-09-21T20:38:02.270Z,99159.94
2022-09-21T20:40:31.241Z,99165.91
2022-09-21T20:42:59.283Z,99153.28
2022-09-21T20:45:26.855Z,99152.81
2022-09-21T20:47:54.999Z,99150.94
2022-09-21T20:50:23.550Z,99150.47
2022-09-21T20:52:50.638Z,99158.31
2022-09-21T20:55:20.413Z,99152.47
2022-09-21T20:57:48.858Z,99149.09
2022-09-21T21:00:17.403Z,99137.25
2022-09-21T21:02:45.302Z,99144.66
2022-09-21T21:05:15.244Z,99139.28
2022-09-21T21:07:45.226Z,99134.34
2022-09-21T21:10:14.227Z,99130.03
2022-09-21T21:12:42.229Z,99133.16
2022-09-21T21:15:10.062Z,99130.94
2022-09-21T21:17:37.072Z,99130.94
2022-09-21T21:20:06.715Z,99139.59
2022-09-21T21:22:33.855Z,99134.22
2022-09-21T21:25:02.239Z,99145.13
2022-09-21T21:27:31.653Z,99145.81
2022-09-21T21:29:58.655Z,99145.34
2022-09-21T21:32:26.593Z,99153.41
2022-09-21T21:34:54.592Z,99149.69
2022-09-21T21:37:25.103Z,99148.41
2022-09-21T21:39:56.442Z,99149.81
2022-09-21T21:42:24.960Z,99154.38
2022-09-21T21:44:52.225Z,99153.91
2022-09-21T21:47:39.952Z,99148.88
2022-09-21T21:50:07.231Z,99155.13
2022-09-21T21:52:34.348Z,99156.16
2022-09-21T21:55:02.555Z,99145.75
2022-09-21T21:57:30.378Z,99149.47
2022-09-21T21:59:57.418Z,99152.03
2022-09-21T22:02:24.503Z,99138.22
2022-09-21T22:04:52.805Z,99150.88
2022-09-21T22:07:21.686Z,99135.75
2022-09-21T22:09:51.087Z,99155.66
2022-09-21T22:12:18.074Z,99155.06
2022-09-21T22:14:46.644Z,99155.66
2022-09-21T22:17:13.968Z,99157.69
2022-09-21T22:19:40.933Z,99141.53
2022-09-21T22:22:07.954Z,99143.63
2022-09-21T22:24:35.163Z,99138.94
2022-09-21T22:27:02.244Z,99135.84
2022-09-21T22:29:29.255Z,99138.53
2022-09-21T22:31:56.934Z,99136.91
2022-09-21T22:34:23.957Z,99144.53
2022-09-21T22:36:51.085Z,99141.03
2022-09-21T22:39:18.456Z,99146.41
2022-09-21T22:41:45.543Z,99143.25
2022-09-21T22:44:12.691Z,99147.34
2022-09-21T22:46:42.536Z,99144.22
2022-09-21T22:49:09.533Z,99146.44
2022-09-21T22:51:38.139Z,99145.63
2022-09-21T22:54:05.462Z,99144.22
2022-09-21T22:56:33.326Z,99148.31
2022-09-21T22:59:01.983Z,99143.38
2022-09-21T23:01:34.320Z,99144.44
2022-09-21T23:04:05.281Z,99137.41
2022-09-21T23:06:35.894Z,99143.38
2022-09-21T23:09:05.257Z,99133.31
2022-09-21T23:11:35.607Z,99136.22
2022-09-21T23:14:05.727Z,99130.47
2022-09-21T23:16:34.113Z,99139.16
2022-09-21T23:19:01.234Z,99130.03
2022-09-21T23:21:29.629Z,99135.75
2022-09-21T23:24:00.125Z,99133.88
2022-09-21T23:26:30.483Z,99136.34
2022-09-21T23:28:59.567Z,99132.03
2022-09-21T23:31:27.680Z,99132.59
2022-09-21T23:33:56.901Z,99129.09
2022-09-21T23:36:27.531Z,99131.56
2022-09-21T23:38:54.703Z,99129.91
2022-09-21T23:41:27.059Z,99121.25
2022-09-21T23:43:54.811Z,99119.13
2022-09-21T23:46:24.683Z,99114.59
2022-09-21T23:48:52.145Z,99115.63
2022-09-21T23:51:19.890Z,99116.22
2022-09-21T23:53:47.476Z,99113.31
2022-09-21T23:56:16.679Z,99109.78
2022-09-21T23:58:43.863Z,99123.72
